KAL175 YSSY-YBBN
Flight info
| Callsign | KAL175 |
|---|---|
| Flight time | N/A |
| Altitude | 41000 |
| Route | YSSY/16R N0473F410 DCT OLSEM Y193 BANDA H252 GOMOL GOMO4A YBBN/01L |
| Aircraft | B748/H-SDE3FGHIM1M2RWXY/LB1 |
Departure
| Time | 2026-04-21 10:32 |
|---|---|
| Airport | Sydney Kingsford Smith International Airport (YSSY) |
Arrival
| Time | N/A |
|---|---|
| Airport | Brisbane International Airport (YBBN) |
| Time | Latitude | Longitude | Altitude | Speed | Heading |
|---|---|---|---|---|---|
| 2026-04-21 09:35 | -33.93723 | 151.17866 | 40 ft | 0 kts | 80° |
| 2026-04-21 10:13 | -33.93723 | 151.17865 | 40 ft | 2 kts | 80° |
| 2026-04-21 10:13 | -33.93726 | 151.17841 | 37 ft | 3 kts | 62° |
| 2026-04-21 10:13 | -33.93741 | 151.17820 | 35 ft | 3 kts | 15° |
| 2026-04-21 10:14 | -33.93749 | 151.17816 | 36 ft | 0 kts | 350° |
| 2026-04-21 10:14 | -33.93752 | 151.17816 | 37 ft | 0 kts | 350° |
| 2026-04-21 10:14 | -33.93753 | 151.17816 | 37 ft | 0 kts | 350° |
| 2026-04-21 10:19 | -33.93755 | 151.17817 | 37 ft | 1 kts | 350° |
| 2026-04-21 10:19 | -33.93761 | 151.17818 | 37 ft | 0 kts | 350° |
| 2026-04-21 10:19 | -33.93764 | 151.17819 | 36 ft | 1 kts | 350° |
| 2026-04-21 10:20 | -33.93773 | 151.17821 | 35 ft | 2 kts | 350° |
| 2026-04-21 10:20 | -33.93784 | 151.17823 | 34 ft | 1 kts | 350° |
| 2026-04-21 10:20 | -33.93789 | 151.17824 | 33 ft | 0 kts | 350° |
| 2026-04-21 10:20 | -33.93791 | 151.17824 | 33 ft | 0 kts | 350° |
| 2026-04-21 10:22 | -33.93775 | 151.17821 | 34 ft | 0 kts | 346° |
| 2026-04-21 10:22 | -33.93772 | 151.17817 | 35 ft | 2 kts | 331° |
| 2026-04-21 10:22 | -33.93759 | 151.17795 | 36 ft | 6 kts | 302° |
| 2026-04-21 10:22 | -33.93728 | 151.17732 | 36 ft | 13 kts | 301° |
| 2026-04-21 10:23 | -33.93683 | 151.17666 | 37 ft | 6 kts | 322° |
| 2026-04-21 10:23 | -33.93645 | 151.17637 | 39 ft | 8 kts | 329° |
| 2026-04-21 10:23 | -33.93587 | 151.17611 | 37 ft | 8 kts | 347° |
| 2026-04-21 10:23 | -33.93510 | 151.17592 | 37 ft | 12 kts | 354° |
| 2026-04-21 10:24 | -33.93430 | 151.17591 | 39 ft | 13 kts | 357° |
| 2026-04-21 10:24 | -33.93370 | 151.17584 | 40 ft | 9 kts | 356° |
| 2026-04-21 10:24 | -33.93297 | 151.17571 | 40 ft | 9 kts | 346° |
| 2026-04-21 10:24 | -33.93210 | 151.17548 | 40 ft | 17 kts | 348° |
| 2026-04-21 10:25 | -33.93080 | 151.17536 | 40 ft | 21 kts | 1° |
| 2026-04-21 10:25 | -33.92995 | 151.17502 | 40 ft | 5 kts | 291° |
| 2026-04-21 10:25 | -33.92979 | 151.17429 | 35 ft | 14 kts | 282° |
| 2026-04-21 10:25 | -33.92961 | 151.17322 | 30 ft | 0 kts | 281° |
| 2026-04-21 10:26 | -33.92961 | 151.17320 | 30 ft | 1 kts | 281° |
| 2026-04-21 10:27 | -33.92960 | 151.17315 | 30 ft | 0 kts | 281° |
| 2026-04-21 10:29 | -33.92959 | 151.17310 | 30 ft | 2 kts | 280° |
| 2026-04-21 10:29 | -33.92956 | 151.17281 | 30 ft | 3 kts | 274° |
| 2026-04-21 10:29 | -33.92956 | 151.17251 | 30 ft | 3 kts | 263° |
| 2026-04-21 10:30 | -33.92964 | 151.17226 | 29 ft | 4 kts | 240° |
| 2026-04-21 10:30 | -33.92994 | 151.17189 | 29 ft | 6 kts | 214° |
| 2026-04-21 10:30 | -33.93037 | 151.17186 | 29 ft | 11 kts | 178° |
| 2026-04-21 10:30 | -33.93090 | 151.17198 | 30 ft | 14 kts | 168° |
| 2026-04-21 10:31 | -33.93507 | 151.17308 | 30 ft | 112 kts | 168° |
| 2026-04-21 10:31 | -33.94594 | 151.17585 | 36 ft | 204 kts | 168° |
| 2026-04-21 10:31 | -33.96215 | 151.18004 | 201 ft | 261 kts | 167° |
| 2026-04-21 10:31 | -33.98034 | 151.18529 | 567 ft | 272 kts | 165° |
| 2026-04-21 10:32 | -33.99942 | 151.18997 | 1271 ft | 282 kts | 175° |
| 2026-04-21 10:32 | -34.01816 | 151.18608 | 2654 ft | 269 kts | 200° |
| 2026-04-21 10:32 | -34.03492 | 151.17573 | 3591 ft | 280 kts | 194° |
| 2026-04-21 10:32 | -34.05445 | 151.18011 | 4003 ft | 303 kts | 152° |
| 2026-04-21 10:33 | -34.07206 | 151.19046 | 5857 ft | 275 kts | 159° |
| 2026-04-21 10:33 | -34.09128 | 151.19654 | 5221 ft | 302 kts | 178° |
| 2026-04-21 10:33 | -34.11395 | 151.20018 | 5588 ft | 342 kts | 161° |
| 2026-04-21 10:33 | -34.13702 | 151.21338 | 5600 ft | 400 kts | 147° |